createdAt,value
2019-04-10T00:01:19.782Z,9.57
2019-04-10T00:03:48.490Z,8.70
2019-04-10T00:06:18.579Z,11.90
2019-04-10T00:08:47.391Z,9.70
2019-04-10T00:11:16.557Z,9.13
2019-04-10T00:13:45.379Z,9.50
2019-04-10T00:16:14.081Z,9.20
2019-04-10T00:18:42.846Z,7.40
2019-04-10T00:21:11.562Z,9.23
2019-04-10T00:23:40.276Z,10.20
2019-04-10T00:26:13.192Z,8.80
2019-04-10T00:28:41.932Z,8.33
2019-04-10T00:31:17.928Z,8.43
2019-04-10T00:33:47.217Z,7.93
2019-04-10T00:36:16.262Z,7.83
2019-04-10T00:38:44.933Z,7.80
2019-04-10T00:41:14.194Z,8.30
2019-04-10T00:43:43.477Z,9.33
2019-04-10T00:46:12.207Z,8.00
2019-04-10T00:48:41.775Z,7.40
2019-04-10T00:51:15.198Z,7.27
2019-04-10T00:53:43.947Z,6.57
2019-04-10T00:56:14.598Z,6.73
2019-04-10T00:58:43.711Z,5.83
2019-04-10T01:01:13.875Z,6.37
2019-04-10T01:03:48.131Z,5.87
2019-04-10T01:06:16.049Z,7.63
2019-04-10T01:08:44.869Z,8.30
2019-04-10T01:11:13.551Z,5.80
2019-04-10T01:13:43.131Z,6.87
2019-04-10T01:16:13.363Z,5.77
2019-04-10T01:18:42.076Z,7.80
2019-04-10T01:21:11.132Z,6.23
2019-04-10T01:23:39.924Z,6.20
2019-04-10T01:26:16.713Z,5.10
2019-04-10T01:28:45.479Z,7.33
2019-04-10T01:31:15.134Z,5.27
2019-04-10T01:33:45.894Z,5.00
2019-04-10T01:36:15.099Z,5.20
2019-04-10T01:38:44.169Z,5.93
2019-04-10T01:41:12.925Z,6.43
2019-04-10T01:43:41.689Z,5.20
2019-04-10T01:46:10.387Z,4.60
2019-04-10T01:48:39.723Z,6.53
2019-04-10T01:51:13.485Z,4.43
2019-04-10T01:53:42.179Z,4.73
2019-04-10T01:56:23.936Z,5.33
2019-04-10T01:58:47.684Z,7.03
2019-04-10T02:01:26.956Z,4.43
2019-04-10T02:03:55.679Z,3.90
2019-04-10T02:06:25.311Z,4.87
2019-04-10T02:08:54.406Z,4.40
2019-04-10T02:11:23.947Z,5.37
2019-04-10T02:13:53.892Z,4.33
2019-04-10T02:16:22.899Z,4.10
2019-04-10T02:18:54.062Z,4.13
2019-04-10T02:21:23.461Z,5.13
2019-04-10T02:23:52.436Z,4.63
2019-04-10T02:26:21.335Z,4.87
2019-04-10T02:28:50.055Z,6.30
2019-04-10T02:31:19.658Z,5.50
2019-04-10T02:33:49.729Z,4.07
2019-04-10T02:36:19.472Z,5.63
2019-04-10T02:38:59.306Z,5.73
2019-04-10T02:41:19.351Z,5.07
2019-04-10T02:43:48.125Z,4.90
2019-04-10T02:46:16.833Z,4.47
2019-04-10T02:48:45.559Z,4.83
2019-04-10T02:51:15.478Z,4.17
2019-04-10T02:53:46.005Z,5.33
2019-04-10T02:56:16.452Z,4.83
2019-04-10T02:58:47.022Z,5.40
2019-04-10T03:01:15.830Z,6.93
2019-04-10T03:03:44.722Z,7.43
2019-04-10T03:06:15.485Z,6.87
2019-04-10T03:09:00.445Z,13.07
2019-04-10T03:11:16.900Z,7.23
2019-04-10T03:13:45.321Z,10.80
2019-04-10T03:16:15.968Z,14.40
2019-04-10T03:18:45.193Z,9.97
2019-04-10T03:21:15.253Z,8.40
2019-04-10T03:23:45.384Z,7.07
2019-04-10T03:26:19.517Z,6.87
2019-04-10T03:28:49.299Z,8.80
2019-04-10T03:31:20.120Z,7.00
2019-04-10T03:33:58.462Z,9.13
2019-04-10T03:36:29.504Z,7.43
2019-04-10T03:39:02.014Z,8.47
2019-04-10T03:41:28.630Z,8.27
2019-04-10T03:43:58.219Z,8.87
2019-04-10T03:46:27.708Z,10.40
2019-04-10T03:48:57.683Z,13.27
2019-04-10T03:51:26.556Z,15.70
2019-04-10T03:53:56.349Z,13.07
2019-04-10T03:56:25.674Z,14.63
2019-04-10T03:58:54.435Z,12.23
2019-04-10T04:01:23.149Z,15.93
2019-04-10T04:03:51.863Z,18.77
2019-04-10T04:06:21.686Z,14.63
2019-04-10T04:09:01.542Z,22.07
2019-04-10T04:11:21.790Z,18.03
2019-04-10T04:13:50.562Z,22.23
2019-04-10T04:16:19.281Z,16.07
2019-04-10T04:18:48.983Z,16.90
2019-04-10T04:21:17.998Z,14.87
2019-04-10T04:23:46.896Z,14.20
2019-04-10T04:26:15.560Z,16.57
2019-04-10T04:28:44.273Z,18.17
2019-04-10T04:31:14.111Z,22.67
2019-04-10T04:33:42.827Z,21.07
2019-04-10T04:36:12.342Z,17.43
2019-04-10T04:38:41.205Z,20.40
2019-04-10T04:41:09.928Z,18.83
2019-04-10T04:43:39.184Z,19.17
2019-04-10T04:46:16.174Z,18.47
2019-04-10T04:48:45.379Z,16.43
2019-04-10T04:51:15.426Z,18.03
2019-04-10T04:53:44.309Z,17.07
2019-04-10T04:56:13.023Z,18.30
2019-04-10T04:58:41.730Z,17.63
2019-04-10T05:01:16.961Z,18.17
2019-04-10T05:03:46.378Z,19.47
2019-04-10T05:06:16.089Z,28.13
2019-04-10T05:08:44.834Z,23.37
2019-04-10T05:11:13.911Z,22.50
2019-04-10T05:13:42.751Z,22.93
2019-04-10T05:16:12.927Z,23.00
2019-04-10T05:18:41.646Z,20.87
2019-04-10T05:21:10.644Z,25.60
2019-04-10T05:23:39.412Z,25.43
2019-04-10T05:26:08.218Z,23.80
2019-04-10T05:28:36.936Z,21.63
2019-04-10T05:31:15.174Z,21.97
2019-04-10T05:33:44.773Z,25.40
2019-04-10T05:36:13.672Z,22.50
2019-04-10T05:38:42.463Z,21.63
2019-04-10T05:41:11.246Z,24.87
2019-04-10T05:43:39.977Z,21.90
2019-04-10T05:46:14.430Z,26.97
2019-04-10T05:48:44.124Z,23.17
2019-04-10T05:51:12.931Z,21.67
2019-04-10T05:53:41.689Z,20.57
2019-04-10T05:56:10.403Z,23.47
2019-04-10T05:58:39.120Z,23.17
2019-04-10T06:01:13.754Z,23.83
2019-04-10T06:03:42.831Z,21.47
2019-04-10T06:06:12.525Z,20.57
2019-04-10T06:08:41.532Z,17.60
2019-04-10T06:11:10.744Z,19.33
2019-04-10T06:13:39.509Z,20.30
2019-04-10T06:16:13.637Z,20.37
2019-04-10T06:18:43.071Z,19.30
2019-04-10T06:21:12.532Z,23.50
2019-04-10T06:23:41.673Z,20.47
2019-04-10T06:26:10.414Z,18.87
2019-04-10T06:28:40.115Z,21.73
2019-04-10T06:31:14.887Z,24.00
2019-04-10T06:33:44.415Z,20.83
2019-04-10T06:36:13.276Z,20.50
2019-04-10T06:38:43.228Z,19.50
2019-04-10T06:41:13.731Z,21.50
2019-04-10T06:43:43.419Z,21.33
2019-04-10T06:46:14.515Z,20.47
2019-04-10T06:48:44.505Z,18.43
2019-04-10T06:51:13.278Z,20.33
2019-04-10T06:53:42.031Z,19.60
2019-04-10T06:56:11.258Z,17.80
2019-04-10T06:58:41.038Z,19.80
2019-04-10T07:01:16.657Z,21.90
2019-04-10T07:03:55.774Z,26.63
2019-04-10T07:06:20.780Z,22.77
2019-04-10T07:08:50.198Z,21.63
2019-04-10T07:11:18.544Z,20.87
2019-04-10T07:13:47.477Z,21.87
2019-04-10T07:16:16.186Z,21.57
2019-04-10T07:18:47.804Z,18.80
2019-04-10T07:21:15.384Z,19.93
2019-04-10T07:23:44.972Z,20.97
2019-04-10T07:26:17.715Z,21.53
2019-04-10T07:28:46.392Z,21.53
2019-04-10T07:31:17.351Z,38.37
2019-04-10T07:33:50.020Z,24.50
2019-04-10T07:36:16.604Z,22.03
2019-04-10T07:38:45.321Z,24.33
2019-04-10T07:41:20.883Z,28.10
2019-04-10T07:43:44.820Z,25.97
2019-04-10T07:46:13.514Z,22.43
2019-04-10T07:48:43.534Z,27.43
2019-04-10T07:51:13.497Z,24.10
2019-04-10T07:53:43.500Z,40.43
2019-04-10T07:56:18.001Z,44.50
2019-04-10T07:58:44.068Z,52.57
2019-04-10T08:01:14.577Z,41.37
2019-04-10T08:03:43.828Z,45.60
2019-04-10T08:06:13.132Z,38.03
2019-04-10T08:08:42.633Z,50.33
2019-04-10T08:11:11.578Z,47.77
2019-04-10T08:13:40.710Z,38.90
2019-04-10T08:16:10.574Z,33.00
2019-04-10T08:18:39.528Z,29.07
2019-04-10T08:21:13.883Z,26.20
2019-04-10T08:23:42.598Z,30.43
2019-04-10T08:26:14.417Z,29.13
2019-04-10T08:28:43.383Z,27.20
2019-04-10T08:31:15.424Z,26.97
2019-04-10T08:33:44.192Z,25.00
2019-04-10T08:36:13.026Z,26.17
2019-04-10T08:38:42.138Z,25.77
2019-04-10T08:41:14.995Z,25.03
2019-04-10T08:43:43.891Z,24.83
2019-04-10T08:46:17.687Z,26.37
2019-04-10T08:48:47.653Z,24.27
2019-04-10T08:51:17.089Z,23.57
2019-04-10T08:53:46.726Z,28.00
2019-04-10T08:56:16.237Z,27.17
2019-04-10T08:58:45.383Z,33.83
2019-04-10T09:01:15.405Z,30.37
2019-04-10T09:03:44.155Z,23.67
2019-04-10T09:06:13.627Z,23.83
2019-04-10T09:08:43.487Z,27.57
2019-04-10T09:11:12.330Z,26.57
2019-04-10T09:13:41.067Z,30.50
2019-04-10T09:16:10.072Z,24.90
2019-04-10T09:18:39.109Z,23.90
2019-04-10T09:21:07.960Z,27.80
2019-04-10T09:23:44.770Z,28.73
2019-04-10T09:26:16.235Z,27.77
2019-04-10T09:28:44.937Z,32.00
2019-04-10T09:31:16.110Z,43.73
2019-04-10T09:33:45.310Z,36.63
2019-04-10T09:36:15.163Z,29.53
2019-04-10T09:38:45.450Z,29.70
2019-04-10T09:41:14.172Z,31.77
2019-04-10T09:43:42.889Z,34.27
2019-04-10T09:46:13.727Z,29.00
2019-04-10T09:48:42.446Z,28.00
2019-04-10T09:51:16.812Z,33.60
2019-04-10T09:53:45.440Z,54.77
2019-04-10T09:56:14.423Z,45.33
2019-04-10T09:58:43.186Z,31.83
2019-04-10T10:01:15.228Z,30.67
2019-04-10T10:03:44.781Z,24.73
2019-04-10T10:06:24.295Z,30.33
2019-04-10T10:08:47.974Z,55.00
2019-04-10T10:11:18.060Z,26.43
2019-04-10T10:13:48.143Z,28.90
2019-04-10T10:16:17.087Z,27.13
2019-04-10T10:18:45.836Z,27.63
2019-04-10T10:21:14.546Z,30.33
2019-04-10T10:23:44.612Z,32.50
2019-04-10T10:26:13.738Z,30.07
2019-04-10T10:28:42.961Z,38.60
2019-04-10T10:31:11.851Z,30.70
2019-04-10T10:33:41.697Z,29.37
2019-04-10T10:36:11.580Z,30.20
2019-04-10T10:38:40.587Z,31.83
2019-04-10T10:41:09.299Z,32.57
2019-04-10T10:43:38.018Z,26.90
2019-04-10T10:46:13.833Z,26.13
2019-04-10T10:48:42.543Z,29.13
2019-04-10T10:51:14.887Z,55.43
2019-04-10T10:53:44.078Z,34.17
2019-04-10T10:56:13.924Z,28.40
2019-04-10T10:58:42.672Z,36.23
2019-04-10T11:01:11.623Z,32.23
2019-04-10T11:03:40.550Z,35.37
2019-04-10T11:06:09.301Z,35.70
2019-04-10T11:08:38.018Z,22.53
2019-04-10T11:11:14.451Z,23.37
2019-04-10T11:13:43.334Z,25.33
2019-04-10T11:16:14.403Z,22.90
2019-04-10T11:18:43.431Z,22.50
2019-04-10T11:21:12.756Z,22.23
2019-04-10T11:23:42.411Z,20.80
2019-04-10T11:26:12.846Z,21.30
2019-04-10T11:28:41.984Z,27.70
2019-04-10T11:31:13.431Z,27.77
2019-04-10T11:33:43.853Z,22.47
2019-04-10T11:36:13.859Z,24.63
2019-04-10T11:38:44.952Z,25.07
2019-04-10T11:41:15.016Z,31.57
2019-04-10T11:43:45.043Z,25.17
2019-04-10T11:46:14.261Z,24.77
2019-04-10T11:48:45.500Z,24.73
2019-04-10T11:51:14.302Z,21.30
2019-04-10T11:53:45.408Z,24.70
2019-04-10T11:56:19.148Z,25.47
2019-04-10T11:58:52.593Z,24.83
2019-04-10T12:01:21.062Z,27.00
2019-04-10T12:03:51.486Z,25.63
2019-04-10T12:06:21.271Z,28.00
2019-04-10T12:09:13.162Z,28.33
2019-04-10T12:11:20.651Z,64.73
2019-04-10T12:13:50.491Z,64.87
2019-04-10T12:16:19.503Z,92.13
2019-04-10T12:18:48.893Z,110.63
2019-04-10T12:21:17.849Z,42.17
2019-04-10T12:23:47.348Z,37.63
2019-04-10T12:26:16.372Z,48.13
2019-04-10T12:28:45.092Z,39.23
2019-04-10T12:31:13.813Z,40.07
2019-04-10T12:33:42.568Z,49.63
2019-04-10T12:36:12.162Z,47.17
2019-04-10T12:38:41.601Z,51.40
2019-04-10T12:41:15.219Z,64.90
2019-04-10T12:43:43.924Z,45.60
2019-04-10T12:46:14.934Z,27.57
2019-04-10T12:48:43.852Z,71.97
2019-04-10T12:51:13.797Z,28.37
2019-04-10T12:53:43.575Z,23.00
2019-04-10T12:56:13.661Z,23.43
2019-04-10T12:58:42.647Z,26.30
2019-04-10T13:01:14.245Z,26.43
2019-04-10T13:03:43.253Z,24.50
2019-04-10T13:06:14.144Z,35.57
2019-04-10T13:08:57.138Z,67.90
2019-04-10T13:11:13.313Z,82.50
2019-04-10T13:13:42.246Z,49.30
2019-04-10T13:16:14.165Z,78.70
2019-04-10T13:18:42.906Z,45.93
2019-04-10T13:21:12.530Z,19.13
2019-04-10T13:23:41.357Z,46.00
2019-04-10T13:26:10.887Z,31.70
2019-04-10T13:28:39.662Z,26.73
2019-04-10T13:31:14.642Z,34.67
2019-04-10T13:33:43.362Z,30.13
2019-04-10T13:36:12.084Z,30.73
2019-04-10T13:38:40.871Z,33.43
2019-04-10T13:41:10.314Z,28.40
2019-04-10T13:43:39.945Z,27.67
2019-04-10T13:46:13.901Z,26.23
2019-04-10T13:48:42.623Z,23.80
2019-04-10T13:51:15.043Z,21.93
2019-04-10T13:53:43.987Z,18.20
2019-04-10T13:56:12.914Z,22.00
2019-04-10T13:58:42.619Z,23.37
2019-04-10T14:01:13.379Z,18.33
2019-04-10T14:03:43.829Z,26.17
2019-04-10T14:06:15.044Z,47.77
2019-04-10T14:09:03.121Z,46.87
2019-04-10T14:11:15.255Z,33.43
2019-04-10T14:13:44.239Z,36.47
2019-04-10T14:16:14.829Z,57.77
2019-04-10T14:18:43.687Z,35.13
2019-04-10T14:21:20.736Z,40.20
2019-04-10T14:23:49.484Z,25.83
2019-04-10T14:26:45.869Z,22.87
2019-04-10T14:29:07.241Z,57.57
2019-04-10T14:31:37.768Z,40.77
2019-04-10T14:34:14.509Z,37.93
2019-04-10T14:36:44.313Z,42.57
2019-04-10T14:39:18.497Z,45.27
2019-04-10T14:41:46.164Z,86.23
2019-04-10T14:44:15.227Z,58.03
2019-04-10T14:46:44.318Z,29.27
2019-04-10T14:49:13.238Z,33.10
2019-04-10T14:51:42.064Z,40.13
2019-04-10T14:54:11.587Z,43.07
2019-04-10T14:56:40.347Z,65.37
2019-04-10T14:59:09.489Z,59.00
2019-04-10T15:01:38.463Z,36.53
2019-04-10T15:04:15.078Z,31.93
2019-04-10T15:06:43.858Z,52.27
2019-04-10T15:09:25.725Z,53.30
2019-04-10T15:11:51.683Z,57.43
2019-04-10T15:14:21.516Z,54.17
2019-04-10T15:16:55.682Z,45.37
2019-04-10T15:19:21.075Z,34.70
2019-04-10T15:21:49.827Z,44.40
2019-04-10T15:24:19.477Z,46.90
2019-04-10T15:26:48.837Z,42.70
2019-04-10T15:29:18.356Z,48.77
2019-04-10T15:31:48.085Z,38.57
2019-04-10T15:34:18.206Z,39.40
2019-04-10T15:36:48.052Z,37.03
2019-04-10T15:39:17.424Z,40.87
2019-04-10T15:41:46.186Z,33.37
2019-04-10T15:44:15.393Z,30.33
2019-04-10T15:46:45.637Z,29.07
2019-04-10T15:49:17.405Z,50.17
2019-04-10T15:51:46.190Z,59.77
2019-04-10T15:54:16.665Z,24.67
2019-04-10T15:56:46.353Z,22.13
2019-04-10T15:59:16.335Z,20.03
2019-04-10T16:01:45.288Z,19.50
2019-04-10T16:04:14.972Z,16.37
2019-04-10T16:06:43.699Z,16.97
2019-04-10T16:09:18.215Z,15.70
2019-04-10T16:11:52.281Z,15.57
2019-04-10T16:14:25.581Z,16.03
2019-04-10T16:16:53.328Z,18.10
2019-04-10T16:19:36.682Z,19.87
2019-04-10T16:22:15.497Z,32.93
2019-04-10T16:24:45.044Z,53.20
2019-04-10T16:27:13.994Z,90.97
2019-04-10T16:29:42.844Z,88.10
2019-04-10T16:32:12.646Z,80.13
2019-04-10T16:34:41.459Z,66.50
2019-04-10T16:37:16.762Z,58.03
2019-04-10T16:39:57.818Z,71.80
2019-04-10T16:42:16.879Z,71.53
2019-04-10T16:44:45.740Z,75.50
2019-04-10T16:47:14.459Z,60.77
2019-04-10T16:49:43.212Z,50.23
2019-04-10T16:52:12.538Z,44.97
2019-04-10T16:54:41.493Z,47.90
2019-04-10T16:57:10.310Z,45.07
2019-04-10T16:59:39.579Z,35.20
2019-04-10T17:02:16.579Z,41.27
2019-04-10T17:04:45.301Z,39.63
2019-04-10T17:07:17.278Z,36.37
2019-04-10T17:09:47.183Z,50.10
2019-04-10T17:12:17.808Z,60.40
2019-04-10T17:14:47.734Z,59.70
2019-04-10T17:17:16.611Z,46.03
2019-04-10T17:19:52.125Z,50.60
2019-04-10T17:22:29.234Z,43.70
2019-04-10T17:24:47.405Z,51.00
2019-04-10T17:27:16.176Z,51.37
2019-04-10T17:29:45.209Z,35.17
2019-04-10T17:32:15.109Z,31.83
2019-04-10T17:34:45.165Z,39.13
2019-04-10T17:37:19.366Z,45.00
2019-04-10T17:39:49.312Z,37.43
2019-04-10T17:42:19.827Z,35.73
2019-04-10T17:44:49.765Z,34.40
2019-04-10T17:47:18.847Z,35.63
2019-04-10T17:49:47.762Z,34.37
2019-04-10T17:52:16.795Z,39.37
2019-04-10T17:54:45.521Z,36.60
2019-04-10T17:57:17.022Z,46.13
2019-04-10T17:59:46.875Z,40.30
2019-04-10T18:02:15.866Z,43.13
2019-04-10T18:04:44.584Z,42.10
2019-04-10T18:07:14.170Z,48.80
2019-04-10T18:09:43.142Z,38.07
2019-04-10T18:12:12.474Z,38.90
2019-04-10T18:14:42.524Z,45.33
2019-04-10T18:17:16.781Z,43.03
2019-04-10T18:19:46.157Z,45.57
2019-04-10T18:22:18.483Z,47.93
2019-04-10T18:24:47.542Z,40.67
2019-04-10T18:27:16.407Z,32.57
2019-04-10T18:29:45.477Z,30.40
2019-04-10T18:32:15.801Z,40.60
2019-04-10T18:34:44.780Z,36.50
2019-04-10T18:37:15.958Z,31.33
2019-04-10T18:39:43.942Z,33.23
2019-04-10T18:42:17.756Z,32.77
2019-04-10T18:44:46.949Z,29.27
2019-04-10T18:47:16.521Z,28.67
2019-04-10T18:49:45.563Z,31.73
2019-04-10T18:52:15.097Z,35.50
2019-04-10T18:54:44.112Z,30.17
2019-04-10T18:57:13.653Z,39.00
2019-04-10T18:59:47.153Z,34.53
2019-04-10T19:02:23.649Z,29.23
2019-04-10T19:04:54.982Z,30.07
2019-04-10T19:07:25.024Z,37.80
2019-04-10T19:09:54.653Z,28.93
2019-04-10T19:12:24.386Z,29.67
2019-04-10T19:14:54.132Z,49.33
2019-04-10T19:17:23.132Z,48.67
2019-04-10T19:19:52.424Z,36.43
2019-04-10T19:22:21.443Z,28.83
2019-04-10T19:24:50.347Z,28.93
2019-04-10T19:27:20.074Z,35.40
2019-04-10T19:29:49.010Z,32.20
2019-04-10T19:32:22.602Z,42.90
2019-04-10T19:34:51.866Z,46.73
2019-04-10T19:37:20.678Z,34.27
2019-04-10T19:39:50.756Z,32.40
2019-04-10T19:42:19.554Z,29.53
2019-04-10T19:44:48.274Z,30.03
2019-04-10T19:47:19.895Z,27.97
2019-04-10T19:49:48.751Z,22.50
2019-04-10T19:52:17.511Z,31.33
2019-04-10T19:54:47.258Z,35.73
2019-04-10T19:57:15.981Z,47.23
2019-04-10T19:59:44.714Z,81.77
2019-04-10T20:02:14.916Z,49.07
2019-04-10T20:04:44.971Z,47.80
2019-04-10T20:07:13.974Z,36.77
2019-04-10T20:09:42.734Z,45.33
2019-04-10T20:12:18.231Z,70.53
2019-04-10T20:14:46.907Z,50.20
2019-04-10T20:17:16.950Z,34.60
2019-04-10T20:19:46.719Z,30.27
2019-04-10T20:22:16.549Z,34.00
2019-04-10T20:24:45.607Z,37.70
2019-04-10T20:27:14.321Z,34.00
2019-04-10T20:29:43.452Z,31.87
2019-04-10T20:32:17.386Z,27.53
2019-04-10T20:34:47.503Z,31.67
2019-04-10T20:37:16.428Z,35.93
2019-04-10T20:39:45.521Z,41.90
2019-04-10T20:42:14.319Z,50.37
2019-04-10T20:44:44.993Z,30.97
2019-04-10T20:47:15.668Z,32.80
2019-04-10T20:49:44.683Z,37.13
2019-04-10T20:52:14.668Z,35.57
2019-04-10T20:54:44.715Z,33.60
2019-04-10T20:57:13.543Z,30.10
2019-04-10T20:59:42.543Z,28.60
2019-04-10T21:02:15.103Z,24.40
2019-04-10T21:04:54.626Z,26.87
2019-04-10T21:07:14.620Z,25.57
2019-04-10T21:09:43.834Z,26.77
2019-04-10T21:12:20.518Z,28.80
2019-04-10T21:14:47.982Z,26.57
2019-04-10T21:17:16.823Z,25.53
2019-04-10T21:19:45.559Z,25.57
2019-04-10T21:22:20.295Z,24.33
2019-04-10T21:24:49.893Z,24.53
2019-04-10T21:27:18.650Z,26.57
2019-04-10T21:29:54.845Z,23.57
2019-04-10T21:32:32.174Z,27.20
2019-04-10T21:35:03.917Z,24.30
2019-04-10T21:37:32.776Z,22.47
2019-04-10T21:40:02.706Z,23.90
2019-04-10T21:42:31.652Z,24.37
2019-04-10T21:45:00.353Z,25.07
2019-04-10T21:47:29.993Z,29.87
2019-04-10T21:49:58.988Z,35.83
2019-04-10T21:52:27.745Z,42.97
2019-04-10T21:55:00.036Z,30.80
2019-04-10T21:57:26.892Z,32.40
2019-04-10T21:59:56.042Z,31.47
2019-04-10T22:02:25.005Z,35.43
2019-04-10T22:04:53.732Z,41.87
2019-04-10T22:07:24.028Z,83.87
2019-04-10T22:09:55.034Z,55.00
2019-04-10T22:12:31.162Z,35.50
2019-04-10T22:14:56.071Z,38.23
2019-04-10T22:17:24.905Z,39.90
2019-04-10T22:19:54.927Z,43.47
2019-04-10T22:22:23.856Z,36.43
2019-04-10T22:24:52.667Z,34.17
2019-04-10T22:27:21.358Z,27.60
2019-04-10T22:29:50.090Z,30.83
2019-04-10T22:32:19.201Z,31.33
2019-04-10T22:34:47.953Z,29.83
2019-04-10T22:37:16.986Z,31.63
2019-04-10T22:39:46.012Z,34.90
2019-04-10T22:42:17.193Z,34.03
2019-04-10T22:44:47.152Z,35.33
2019-04-10T22:47:16.964Z,35.83
2019-04-10T22:49:45.707Z,35.73
2019-04-10T22:52:15.482Z,35.33
2019-04-10T22:54:44.400Z,32.60
2019-04-10T22:57:13.138Z,32.33
2019-04-10T22:59:42.481Z,33.53
2019-04-10T23:02:15.048Z,33.23
2019-04-10T23:04:44.929Z,27.90
2019-04-10T23:07:13.714Z,27.73
2019-04-10T23:09:42.490Z,25.37
2019-04-10T23:12:11.213Z,29.07
2019-04-10T23:14:39.924Z,29.07
2019-04-10T23:17:16.809Z,28.23
2019-04-10T23:19:46.762Z,29.70
2019-04-10T23:22:16.629Z,32.77
2019-04-10T23:24:45.619Z,33.17
2019-04-10T23:27:14.456Z,33.53
2019-04-10T23:29:44.284Z,39.77
2019-04-10T23:32:15.211Z,41.70
2019-04-10T23:34:45.071Z,49.70
2019-04-10T23:37:14.940Z,48.53
2019-04-10T23:39:44.031Z,47.67
2019-04-10T23:42:12.892Z,48.60
2019-04-10T23:44:42.831Z,54.83
2019-04-10T23:47:15.665Z,52.10
2019-04-10T23:49:45.763Z,52.70
2019-04-10T23:52:14.565Z,52.67
2019-04-10T23:54:43.678Z,47.83
2019-04-10T23:57:13.421Z,45.00
2019-04-10T23:59:42.647Z,48.80
